Aérodrome :
LOGIN :

S'inscrire | Disclaimer

   EN    FR    IT 

 










Légende :    VFR   VFR Marginal   IFR   IFR Intensif   IFR Très Intensif
Visi : 
Plafond : 
>= 8 km
>= 3000ft
5 à 8 km
1000 à 3000 ft
1500m à 5 km
500 à 1000 ft
800 à 1500m
200 à 500 ft
< 800m
< 200 ft
Symboles :   Orages  Brouillard  Fortes neiges  Fortes précipitations  Vent > 20 kt
SIGMETs :   Divers  Orages  Givrage  Turbulence  Onde Orograph.  Cendres Volcan.







- Altitude de l'aérodrome : 416 ft
- Code IATA : OVD


LEAS - Asturias

DERNIER METAR :
  • 170730Z VRB01KT 2500 -DZ SCT002 BKN005 BKN010 17/17 Q1021 TEMPO 4000 SCT005

METARs EXPIRÉS :
  • 170700Z 28003KT 250V310 2500 -DZ FEW002 BKN010 BKN020 17/17 Q1021 TEMPO 6000 NSW
  • 170630Z 27004KT 3000 -DZ SCT009 BKN012 BKN016 17/17 Q1021 TEMPO 6000 NSW BKN020
  • 170600Z VRB02KT 3000 DZ FEW011 BKN014 OVC018 18/17 Q1021 TEMPO 6000 NSW BKN020
  • 170547Z VRB02KT 4000 DZ FEW012 BKN014 OVC020 18/17 Q1021 NOSIG
  • 170530Z 26003KT 230V290 9999 SCT014 SCT020 OVC024 18/16 Q1021 TEMPO 3000 DZ BKN010
  • 170500Z 27003KT 250V310 9000 FEW015 SCT020 BKN023 18/16 Q1021 TEMPO 3000 DZ BKN010

TAF TAF LEAS
Valide du 17 à 03h jusqu'au 18 à 03h UTC


170200Z 1703/1803 29005KT 9999 SCT012 BKN025 TX22/1714Z TN17/1706Z
BECMG 1705/1709 04010KT
PROB40
TEMPO 1703/1718 3000 -RADZ BKN010 BKN014
Pas de NOTAMs connus pour ce terrain.



MET'MAP, la Météo Aéronautique d'un coup d'oeil ! - Copyright ORBIFLY Décembre 2007 - Disclaimer

ORBIFLY MET'MAP TEAM :

Programmation & Développement : Alexandra Zaïnal
Conception & Développement : Baudouin d'Aumeries
Co-Programmation & Développement : Marc-Olivier Méhu
Soutien technique & logistique : Manuel Goepfert

Contact : metmap@orbifly.com




SOURCES & CREDITS :

   NOAA